createdAt,value
2019-06-04T00:00:26.043Z,19.62
2019-06-04T00:01:36.253Z,19.6
2019-06-04T00:02:46.336Z,19.59
2019-06-04T00:03:56.501Z,19.62
2019-06-04T00:05:07.839Z,19.69
2019-06-04T00:06:17.920Z,19.62
2019-06-04T00:07:28.083Z,19.73
2019-06-04T00:08:38.261Z,19.65
2019-06-04T00:09:48.398Z,19.53
2019-06-04T00:10:58.594Z,19.5
2019-06-04T00:12:08.720Z,19.46
2019-06-04T00:13:18.880Z,19.54
2019-06-04T00:14:29.030Z,19.95
2019-06-04T00:15:40.319Z,19.85
2019-06-04T00:16:51.670Z,19.69
2019-06-04T00:18:01.764Z,19.68
2019-06-04T00:19:13.031Z,19.59
2019-06-04T00:20:23.181Z,19.67
2019-06-04T00:21:33.362Z,19.7
2019-06-04T00:22:44.659Z,19.81
2019-06-04T00:23:54.773Z,19.79
2019-06-04T00:25:04.946Z,19.78
2019-06-04T00:26:15.125Z,19.67
2019-06-04T00:27:25.257Z,19.69
2019-06-04T00:28:35.433Z,19.87
2019-06-04T00:29:45.573Z,19.7
2019-06-04T00:30:56.058Z,19.67
2019-06-04T00:32:07.947Z,19.68
2019-06-04T00:33:17.153Z,19.7
2019-06-04T00:34:27.359Z,19.78
2019-06-04T00:35:37.460Z,19.79
2019-06-04T00:36:47.683Z,19.81
2019-06-04T00:37:58.908Z,19.85
2019-06-04T00:39:09.108Z,19.9
2019-06-04T00:40:19.205Z,19.91
2019-06-04T00:41:29.362Z,19.93
2019-06-04T00:42:40.647Z,19.95
2019-06-04T00:43:50.796Z,20.01
2019-06-04T00:45:03.137Z,20.07
2019-06-04T00:46:12.238Z,20.06
2019-06-04T00:47:22.408Z,20.06
2019-06-04T00:48:33.828Z,20.09
2019-06-04T00:49:42.722Z,20.06
2019-06-04T00:50:52.862Z,20.07
2019-06-04T00:52:03.084Z,20.04
2019-06-04T00:53:14.346Z,20.2
2019-06-04T00:54:25.549Z,20.11
2019-06-04T00:55:35.707Z,20.08
2019-06-04T00:56:45.893Z,20.09
2019-06-04T00:57:58.221Z,20.04
2019-06-04T00:59:07.825Z,20.01
2019-06-04T01:00:18.592Z,20.03
2019-06-04T01:01:28.789Z,20.01
2019-06-04T01:02:40.048Z,19.95
2019-06-04T01:03:50.217Z,19.92
2019-06-04T01:05:00.309Z,19.92
2019-06-04T01:06:10.480Z,19.95
2019-06-04T01:07:20.618Z,19.95
2019-06-04T01:08:30.767Z,19.94
2019-06-04T01:09:40.916Z,19.92
2019-06-04T01:10:51.201Z,19.91
2019-06-04T01:12:01.688Z,19.9
2019-06-04T01:13:12.490Z,19.87
2019-06-04T01:14:22.640Z,19.7
2019-06-04T01:15:33.921Z,19.74
2019-06-04T01:16:44.080Z,19.7
2019-06-04T01:17:54.235Z,19.87
2019-06-04T01:19:04.758Z,19.93
2019-06-04T01:20:14.525Z,19.87
2019-06-04T01:21:24.707Z,19.77
2019-06-04T01:22:34.844Z,19.73
2019-06-04T01:23:44.978Z,19.69
2019-06-04T01:24:55.335Z,19.69
2019-06-04T01:26:05.609Z,19.87
2019-06-04T01:27:15.452Z,19.76
2019-06-04T01:28:25.616Z,19.83
2019-06-04T01:29:37.010Z,19.7
2019-06-04T01:30:47.153Z,19.73
2019-06-04T01:32:10.916Z,19.71
2019-06-04T01:33:08.935Z,19.71
2019-06-04T01:34:18.478Z,19.7
2019-06-04T01:35:28.633Z,19.82
2019-06-04T01:36:38.786Z,19.78
2019-06-04T01:37:48.967Z,19.68
2019-06-04T01:39:00.619Z,19.7
2019-06-04T01:40:11.331Z,19.66
2019-06-04T01:41:20.589Z,19.62
2019-06-04T01:42:31.696Z,19.69
2019-06-04T01:43:41.861Z,19.67
2019-06-04T01:44:52.022Z,19.7
2019-06-04T01:46:03.405Z,19.68
2019-06-04T01:47:12.288Z,19.65
2019-06-04T01:48:23.559Z,19.67
2019-06-04T01:49:33.712Z,19.69
2019-06-04T01:50:43.862Z,19.76
2019-06-04T01:51:55.142Z,19.71
2019-06-04T01:53:06.775Z,19.7
2019-06-04T01:54:18.568Z,19.75
2019-06-04T01:55:27.956Z,19.71
2019-06-04T01:56:38.009Z,19.62
2019-06-04T01:57:48.139Z,19.68
2019-06-04T01:58:58.300Z,19.65
2019-06-04T02:00:25.792Z,19.62
2019-06-04T02:01:19.725Z,19.64
2019-06-04T02:02:33.480Z,19.67
2019-06-04T02:03:41.147Z,19.64
2019-06-04T02:04:51.320Z,19.58
2019-06-04T02:06:01.439Z,19.53
2019-06-04T02:07:11.940Z,19.48
2019-06-04T02:08:21.745Z,19.51
2019-06-04T02:09:33.231Z,19.48
2019-06-04T02:10:43.160Z,19.51
2019-06-04T02:11:53.358Z,19.45
2019-06-04T02:13:04.390Z,19.44
2019-06-04T02:14:14.680Z,19.32
2019-06-04T02:15:23.771Z,19.35
2019-06-04T02:16:33.917Z,19.33
2019-06-04T02:17:44.060Z,19.17
2019-06-04T02:18:54.253Z,19.29
2019-06-04T02:20:05.799Z,19.28
2019-06-04T02:21:14.517Z,19.27
2019-06-04T02:22:24.660Z,19.2
2019-06-04T02:23:36.048Z,19.19
2019-06-04T02:24:46.081Z,19.08
2019-06-04T02:27:06.403Z,19.06
2019-06-04T02:28:18.780Z,19.19
2019-06-04T02:29:27.815Z,19.21
2019-06-04T02:30:38.023Z,19.24
2019-06-04T02:31:48.163Z,19.23
2019-06-04T02:34:08.659Z,19.14
2019-06-04T02:35:19.246Z,19.2
2019-06-04T02:36:28.722Z,19.1
2019-06-04T02:37:38.946Z,19.14
2019-06-04T02:38:48.994Z,19.12
2019-06-04T02:39:59.140Z,19.1
2019-06-04T02:41:10.224Z,19.17
2019-06-04T02:42:20.570Z,19.11
2019-06-04T02:43:30.716Z,19.12
2019-06-04T02:44:40.903Z,19.06
2019-06-04T02:45:51.197Z,19.09
2019-06-04T02:47:01.150Z,19.09
2019-06-04T02:48:12.562Z,19.09
2019-06-04T02:49:21.468Z,19.02
2019-06-04T02:50:31.597Z,18.98
2019-06-04T02:51:42.948Z,18.92
2019-06-04T02:52:53.008Z,18.95
2019-06-04T02:54:03.169Z,18.89
2019-06-04T02:55:15.406Z,18.86
2019-06-04T02:56:24.617Z,18.84
2019-06-04T02:57:34.746Z,18.86
2019-06-04T02:59:56.163Z,18.9
2019-06-04T03:01:06.897Z,18.86
2019-06-04T03:02:16.647Z,18.93
2019-06-04T03:03:30.284Z,18.83
2019-06-04T03:04:36.734Z,18.87
2019-06-04T03:05:46.900Z,18.85
2019-06-04T03:06:57.042Z,18.74
2019-06-04T03:08:07.221Z,18.81
2019-06-04T03:09:17.421Z,18.79
2019-06-04T03:10:27.463Z,18.7
2019-06-04T03:11:37.615Z,18.84
2019-06-04T03:12:47.768Z,18.85
2019-06-04T03:13:57.977Z,18.94
2019-06-04T03:15:08.055Z,19.08
2019-06-04T03:16:18.266Z,19.21
2019-06-04T03:17:29.471Z,19.53
2019-06-04T03:18:39.624Z,19.69
2019-06-04T03:19:49.765Z,19.64
2019-06-04T03:20:59.927Z,19.37
2019-06-04T03:22:10.589Z,19.16
2019-06-04T03:23:21.294Z,19.16
2019-06-04T03:25:40.515Z,19.01
2019-06-04T03:26:50.668Z,19.06
2019-06-04T03:28:00.802Z,19.04
2019-06-04T03:29:11.393Z,18.9
2019-06-04T03:30:25.869Z,19.04
2019-06-04T03:31:32.415Z,19.01
2019-06-04T03:32:42.533Z,18.93
2019-06-04T03:33:56.675Z,19.04
2019-06-04T03:35:02.877Z,19.01
2019-06-04T03:36:12.971Z,19.09
2019-06-04T03:37:23.145Z,19.11
2019-06-04T03:38:33.285Z,19.06
2019-06-04T03:39:43.425Z,19.27
2019-06-04T03:40:53.917Z,19.74
2019-06-04T03:42:03.759Z,19.75
2019-06-04T03:43:13.913Z,19.61
2019-06-04T03:44:24.060Z,19.48
2019-06-04T03:45:34.181Z,19.35
2019-06-04T03:46:45.584Z,19.32
2019-06-04T03:47:55.608Z,19.36
2019-06-04T03:49:05.758Z,19.37
2019-06-04T03:50:16.238Z,19.34
2019-06-04T03:51:26.074Z,19.36
2019-06-04T03:52:37.376Z,19.28
2019-06-04T03:53:47.563Z,19.21
2019-06-04T03:54:57.682Z,19.19
2019-06-04T03:56:07.819Z,19.29
2019-06-04T03:57:20.283Z,19.34
2019-06-04T03:58:29.202Z,19.37
2019-06-04T03:59:39.356Z,19.36
2019-06-04T04:00:49.528Z,19.35
2019-06-04T04:02:00.774Z,19.33
2019-06-04T04:03:10.934Z,19.43
2019-06-04T04:04:22.227Z,19.41
2019-06-04T04:05:32.380Z,19.44
2019-06-04T04:06:42.512Z,19.39
2019-06-04T04:07:52.788Z,19.29
2019-06-04T04:09:03.934Z,19.37
2019-06-04T04:10:14.084Z,19.37
2019-06-04T04:11:25.394Z,19.37
2019-06-04T04:12:35.545Z,19.27
2019-06-04T04:13:45.681Z,19.45
2019-06-04T04:14:55.838Z,19.42
2019-06-04T04:16:06.078Z,19.53
2019-06-04T04:17:16.689Z,19.62
2019-06-04T04:18:26.364Z,19.61
2019-06-04T04:19:36.435Z,19.61
2019-06-04T04:20:46.586Z,19.59
2019-06-04T04:21:56.793Z,19.6
2019-06-04T04:23:06.980Z,19.7
2019-06-04T04:24:17.049Z,19.58
2019-06-04T04:25:27.799Z,19.39
2019-06-04T04:26:37.386Z,19.64
2019-06-04T04:27:48.632Z,19.64
2019-06-04T04:28:58.782Z,19.91
2019-06-04T04:30:08.926Z,19.92
2019-06-04T04:31:19.799Z,19.85
2019-06-04T04:32:30.473Z,19.87
2019-06-04T04:33:40.520Z,19.91
2019-06-04T04:34:51.802Z,19.99
2019-06-04T04:36:01.972Z,20.04
2019-06-04T04:37:13.237Z,20.02
2019-06-04T04:38:25.039Z,20.06
2019-06-04T04:39:33.542Z,20.1
2019-06-04T04:40:43.683Z,20.12
2019-06-04T04:41:53.871Z,20.09
2019-06-04T04:43:04.035Z,20.18
2019-06-04T04:44:14.164Z,19.71
2019-06-04T04:45:24.678Z,20.19
2019-06-04T04:46:34.537Z,20.12
2019-06-04T04:47:45.764Z,20.11
2019-06-04T04:48:55.927Z,20.26
2019-06-04T04:50:07.227Z,20.12
2019-06-04T04:51:17.380Z,20.29
2019-06-04T04:52:27.802Z,19.99
2019-06-04T04:53:38.791Z,20.17
2019-06-04T04:54:49.000Z,20.49
2019-06-04T04:58:22.733Z,20.63
2019-06-04T04:59:31.840Z,20.92
2019-06-04T05:00:42.016Z,20.83
2019-06-04T05:01:52.187Z,20.74
2019-06-04T05:03:02.525Z,21.11
2019-06-04T05:04:12.556Z,21.08
2019-06-04T05:05:23.793Z,21.14
2019-06-04T05:06:33.959Z,21.2
2019-06-04T05:07:44.110Z,21.41
2019-06-04T05:08:54.278Z,21.28
2019-06-04T05:10:05.708Z,21.23
2019-06-04T05:11:15.726Z,21.41
2019-06-04T05:12:26.464Z,21.65
2019-06-04T05:13:37.272Z,21.79
2019-06-04T05:14:47.355Z,21.86
2019-06-04T05:15:57.586Z,21.54
2019-06-04T05:17:07.739Z,22.14
2019-06-04T05:18:19.028Z,22.64
2019-06-04T05:19:29.451Z,22.77
2019-06-04T05:20:40.480Z,23.11
2019-06-04T05:21:50.685Z,22.76
2019-06-04T05:24:11.016Z,23.05
2019-06-04T05:25:21.451Z,24.27
2019-06-04T05:26:32.676Z,25.09
2019-06-04T05:27:41.747Z,25.57
2019-06-04T05:28:52.897Z,25.96
2019-06-04T05:30:03.890Z,25.02
2019-06-04T05:31:14.426Z,26.42
2019-06-04T05:33:35.869Z,26.95
2019-06-04T05:35:02.876Z,26.88
2019-06-04T05:37:06.506Z,25.99
2019-06-04T05:38:16.646Z,25.18
2019-06-04T05:39:26.872Z,25.6
2019-06-04T05:40:37.154Z,26.04
2019-06-04T05:41:47.330Z,25.8
2019-06-04T05:42:57.558Z,25.75
2019-06-04T05:44:07.801Z,25.91
2019-06-04T05:45:18.038Z,26.07
2019-06-04T05:46:30.525Z,26.62
2019-06-04T05:47:39.744Z,26.6
2019-06-04T05:48:51.232Z,26.68
2019-06-04T05:50:01.358Z,26.79
2019-06-04T05:51:11.611Z,26.89
2019-06-04T05:52:22.494Z,26.77
2019-06-04T05:53:33.101Z,27.44
2019-06-04T05:54:42.386Z,27.36
2019-06-04T05:55:52.650Z,27.39
2019-06-04T05:57:02.924Z,27.16
2019-06-04T05:58:13.200Z,26.85
2019-06-04T05:59:24.152Z,27.35
2019-06-04T06:00:33.803Z,27.95
2019-06-04T06:01:44.105Z,27.27
2019-06-04T06:02:54.479Z,28.27
2019-06-04T06:04:04.702Z,28.04
2019-06-04T06:05:23.779Z,28.09
2019-06-04T06:06:25.325Z,28.37
2019-06-04T06:07:36.793Z,28.51
2019-06-04T06:08:47.090Z,28.75
2019-06-04T06:09:57.469Z,28.25
2019-06-04T06:11:07.739Z,28.78
2019-06-04T06:12:18.176Z,28.83
2019-06-04T06:13:28.402Z,29.28
2019-06-04T06:14:40.196Z,28.94
2019-06-04T06:15:50.220Z,28.6
2019-06-04T06:17:00.591Z,29.7
2019-06-04T06:18:10.905Z,29.33
2019-06-04T06:19:21.258Z,29.24
2019-06-04T06:20:31.846Z,28.37
2019-06-04T06:21:41.976Z,28.06
2019-06-04T06:23:09.508Z,30.61
2019-06-04T06:24:03.832Z,30.34
2019-06-04T06:25:14.199Z,29.58
2019-06-04T06:26:24.646Z,30.1
2019-06-04T06:27:34.944Z,30.15
2019-06-04T06:28:45.332Z,30.27
2019-06-04T06:29:56.831Z,30.34
2019-06-04T06:31:07.312Z,31.54
2019-06-04T06:32:18.746Z,32.11
2019-06-04T06:33:31.890Z,32.07
2019-06-04T06:34:39.544Z,32.25
2019-06-04T06:35:50.700Z,31.81
2019-06-04T06:38:11.866Z,31.9
2019-06-04T06:39:22.277Z,31.51
2019-06-04T06:40:33.391Z,30.65
2019-06-04T06:41:43.077Z,30.95
2019-06-04T06:42:53.536Z,31.4
2019-06-04T06:44:03.960Z,31.78
2019-06-04T06:45:14.330Z,32.74
2019-06-04T06:46:27.185Z,33.29
2019-06-04T06:47:37.245Z,31.6
2019-06-04T06:48:46.767Z,31.45
2019-06-04T06:50:00.263Z,32.23
2019-06-04T06:51:08.767Z,31.87
2019-06-04T06:52:20.292Z,31.61
2019-06-04T06:53:31.944Z,31.49
2019-06-04T06:54:42.378Z,31.56
2019-06-04T06:55:53.775Z,30.94
2019-06-04T06:57:04.216Z,32.16
2019-06-04T06:58:15.810Z,33.5
2019-06-04T06:59:26.202Z,33.11
2019-06-04T07:00:36.655Z,32.81
2019-06-04T07:01:47.132Z,33.21
2019-06-04T07:02:57.586Z,34.12
2019-06-04T07:04:08.023Z,32.38
2019-06-04T07:05:18.516Z,33.16
2019-06-04T07:06:29.796Z,32.38
2019-06-04T07:07:39.599Z,32.89
2019-06-04T07:08:49.959Z,33.47
2019-06-04T07:10:00.349Z,33.68
2019-06-04T07:11:11.521Z,33.18
2019-06-04T07:12:22.428Z,33.55
2019-06-04T07:13:35.350Z,33.71
2019-06-04T07:14:46.177Z,33.24
2019-06-04T07:17:06.616Z,34.79
2019-06-04T07:18:17.101Z,34.59
2019-06-04T07:19:28.700Z,34.89
2019-06-04T07:20:38.085Z,35.16
2019-06-04T07:21:48.619Z,34.29
2019-06-04T07:22:59.043Z,34.48
2019-06-04T07:24:09.719Z,34.52
2019-06-04T07:25:20.018Z,33.82
2019-06-04T07:26:31.643Z,34.63
2019-06-04T07:27:41.222Z,33.75
2019-06-04T07:28:52.647Z,34.78
2019-06-04T07:30:04.284Z,35
2019-06-04T07:31:14.765Z,33.47
2019-06-04T07:32:26.402Z,33.97
2019-06-04T07:33:39.348Z,34.77
2019-06-04T07:34:48.598Z,33.93
2019-06-04T07:36:18.413Z,34.23
2019-06-04T07:37:10.768Z,34.56
2019-06-04T07:38:21.373Z,34.59
2019-06-04T07:39:32.849Z,35.66
2019-06-04T07:40:43.408Z,34.86
2019-06-04T07:41:53.872Z,34.91
2019-06-04T07:43:04.396Z,35.59
2019-06-04T07:44:14.919Z,35
2019-06-04T07:45:25.464Z,35.37
2019-06-04T07:46:37.253Z,33.62
2019-06-04T07:47:46.497Z,34
2019-06-04T07:48:58.649Z,33.89
2019-06-04T07:50:08.684Z,33.95
2019-06-04T07:51:19.233Z,33.31
2019-06-04T07:52:29.778Z,33.97
2019-06-04T07:53:40.267Z,34.8
2019-06-04T07:54:50.902Z,34.55
2019-06-04T07:56:05.237Z,33
2019-06-04T07:57:11.920Z,32.46
2019-06-04T07:58:22.507Z,33.58
2019-06-04T07:59:33.966Z,34.91
2019-06-04T08:00:45.465Z,35.48
2019-06-04T08:02:06.238Z,35.8
2019-06-04T08:03:04.724Z,36.07
2019-06-04T08:04:16.376Z,35.14
2019-06-04T08:05:26.777Z,35.89
2019-06-04T08:06:46.156Z,35.25
2019-06-04T08:07:47.917Z,33.98
2019-06-04T08:08:59.520Z,33.29
2019-06-04T08:10:10.707Z,33.88
2019-06-04T08:11:20.715Z,35.73
2019-06-04T08:12:31.158Z,35.4
2019-06-04T08:13:41.701Z,34.41
2019-06-04T08:14:52.325Z,34.98
2019-06-04T08:16:02.932Z,35.86
2019-06-04T08:17:13.312Z,35.75
2019-06-04T08:18:23.850Z,36.12
2019-06-04T08:19:35.770Z,35.59
2019-06-04T08:20:46.070Z,36.54
2019-06-04T08:21:58.419Z,35.91
2019-06-04T08:23:08.559Z,36.43
2019-06-04T08:24:18.851Z,35.06
2019-06-04T08:27:50.408Z,35.87
2019-06-04T08:29:02.952Z,35.88
2019-06-04T08:30:11.499Z,35.3
2019-06-04T08:31:22.016Z,36.32
2019-06-04T08:32:33.844Z,36.68
2019-06-04T08:34:53.609Z,35.88
2019-06-04T08:36:04.182Z,34.61
2019-06-04T08:37:14.651Z,34.59
2019-06-04T08:38:25.187Z,33.97
2019-06-04T08:39:37.337Z,33.71
2019-06-04T08:40:46.276Z,34.36
2019-06-04T08:43:07.380Z,36.93
2019-06-04T08:44:18.939Z,35
2019-06-04T08:45:30.533Z,33.73
2019-06-04T08:47:51.775Z,34.45
2019-06-04T08:49:02.212Z,33.75
2019-06-04T08:50:12.575Z,34.84
2019-06-04T08:51:23.456Z,33.68
2019-06-04T08:52:33.576Z,34.91
2019-06-04T08:53:44.452Z,36.95
2019-06-04T08:54:54.582Z,38.22
2019-06-04T08:56:05.147Z,36.33
2019-06-04T08:57:16.803Z,34.68
2019-06-04T08:58:27.236Z,33.93
2019-06-04T08:59:37.755Z,35.48
2019-06-04T09:00:49.438Z,36.53
2019-06-04T09:01:58.660Z,36.75
2019-06-04T09:03:09.146Z,36.89
2019-06-04T09:04:19.677Z,37.48
2019-06-04T09:05:31.208Z,37.45
2019-06-04T09:06:42.149Z,37.59
2019-06-04T09:07:52.251Z,37.31
2019-06-04T09:09:02.664Z,36.9
2019-06-04T09:10:13.098Z,33.63
2019-06-04T09:11:23.550Z,33.59
2019-06-04T09:12:34.009Z,34.38
2019-06-04T09:13:45.618Z,34.84
2019-06-04T09:14:54.951Z,35.47
2019-06-04T09:17:15.829Z,32.66
2019-06-04T09:18:26.318Z,35.36
2019-06-04T09:19:36.756Z,32.97
2019-06-04T09:21:58.916Z,33.65
2019-06-04T09:23:09.389Z,33.47
2019-06-04T09:24:19.600Z,32.75
2019-06-04T09:25:30.026Z,32.16
2019-06-04T09:26:42.083Z,34.53
2019-06-04T09:27:50.899Z,35.27
2019-06-04T09:29:01.288Z,36.73
2019-06-04T09:30:12.814Z,34.99
2019-06-04T09:31:27.223Z,36.08
2019-06-04T09:32:34.766Z,35.53
2019-06-04T09:33:45.608Z,34.28
2019-06-04T09:34:55.566Z,34.55
2019-06-04T09:36:06.081Z,35.53
2019-06-04T09:37:16.407Z,33.23
2019-06-04T09:38:27.946Z,33.75
2019-06-04T09:39:39.857Z,32.81
2019-06-04T09:40:50.047Z,33.82
2019-06-04T09:41:59.153Z,34.32
2019-06-04T09:43:09.473Z,34.47
2019-06-04T09:44:19.917Z,33.14
2019-06-04T09:45:30.197Z,31.72
2019-06-04T09:46:41.781Z,33.89
2019-06-04T09:47:52.132Z,33.41
2019-06-04T09:49:02.454Z,34.02
2019-06-04T09:50:18.592Z,34
2019-06-04T09:51:24.506Z,34.99
2019-06-04T09:52:34.683Z,33.68
2019-06-04T09:53:46.541Z,33.36
2019-06-04T09:56:06.926Z,33.2
2019-06-04T09:57:17.257Z,34.43
2019-06-04T09:58:30.114Z,32.91
2019-06-04T09:59:37.967Z,33.32
2019-06-04T10:00:50.195Z,33.98
2019-06-04T10:01:58.814Z,33.9
2019-06-04T13:15:01.772Z,30.86
2019-06-04T13:16:12.601Z,31.69
2019-06-04T13:17:26.846Z,33.48
2019-06-04T13:18:35.230Z,31.57
2019-06-04T13:19:46.574Z,31.45
2019-06-04T13:20:58.307Z,30.55
2019-06-04T13:22:09.368Z,30.88
2019-06-04T13:23:20.823Z,31.45
2019-06-04T13:24:32.296Z,31.16
2019-06-04T13:25:43.769Z,31.45
2019-06-04T13:26:55.263Z,31.01
2019-06-04T13:28:12.831Z,34.41
2019-06-04T13:29:18.273Z,34.49
2019-06-04T13:30:28.947Z,33.98
2019-06-04T13:31:39.372Z,35.49
2019-06-04T13:32:50.025Z,35.86
2019-06-04T13:34:03.114Z,36.9
2019-06-04T13:35:11.127Z,36
2019-06-04T13:36:21.750Z,32.37
2019-06-04T13:37:32.386Z,31.74
2019-06-04T13:38:44.520Z,31.94
2019-06-04T13:39:54.804Z,32.15
2019-06-04T13:41:06.961Z,33.31
2019-06-04T13:42:17.235Z,34.78
2019-06-04T13:43:29.086Z,35.09
2019-06-04T13:44:39.734Z,36.18
2019-06-04T13:45:50.561Z,36.39
2019-06-04T13:47:01.664Z,37.03
2019-06-04T13:48:12.905Z,36.53
2019-06-04T13:49:32.841Z,36.02
2019-06-04T13:50:35.364Z,33.61
2019-06-04T13:51:46.114Z,34.75
2019-06-04T13:52:56.882Z,36.09
2019-06-04T13:54:08.018Z,34.02
2019-06-04T13:55:18.791Z,36.66
2019-06-04T13:56:29.225Z,32.78
2019-06-04T13:57:40.008Z,33.14
2019-06-04T13:58:50.783Z,32.15
2019-06-04T14:00:02.696Z,30.47
2019-06-04T14:01:13.413Z,32.09
2019-06-04T14:02:24.158Z,32.88
2019-06-04T14:03:34.932Z,30.77
2019-06-04T14:04:45.739Z,31.07
2019-06-04T14:05:56.485Z,33.79
2019-06-04T14:07:07.403Z,33.29
2019-06-04T14:08:18.030Z,32.93
2019-06-04T14:09:29.169Z,33.4
2019-06-04T14:10:49.631Z,32.65
2019-06-04T14:11:50.370Z,31.53
2019-06-04T14:13:03.667Z,31.26
2019-06-04T14:14:23.693Z,30.67
2019-06-04T14:15:25.717Z,30.9
2019-06-04T14:16:34.590Z,30.98
2019-06-04T14:17:46.455Z,31.78
2019-06-04T14:18:57.326Z,32.45
2019-06-04T14:20:09.088Z,32.25
2019-06-04T14:21:19.844Z,33.2
2019-06-04T14:22:31.249Z,35
2019-06-04T14:23:41.345Z,34.48
2019-06-04T14:24:52.159Z,34.59
2019-06-04T14:26:02.866Z,33.12
2019-06-04T14:27:13.830Z,31.89
2019-06-04T14:28:24.152Z,32.06
2019-06-04T14:29:34.692Z,31.23
2019-06-04T14:30:45.438Z,31.37
2019-06-04T14:31:56.065Z,33.38
2019-06-04T14:33:07.642Z,34.72
2019-06-04T14:34:24.985Z,34.61
2019-06-04T14:35:28.290Z,35.41
2019-06-04T14:36:38.984Z,32.14
2019-06-04T14:37:49.763Z,30.32
2019-06-04T14:39:00.653Z,32
2019-06-04T14:40:23.922Z,33.3
2019-06-04T14:41:22.378Z,33.12
2019-06-04T14:42:32.800Z,32.68
2019-06-04T14:43:43.569Z,33.99
2019-06-04T14:44:55.462Z,31.48
2019-06-04T14:46:07.397Z,32.3
2019-06-04T14:47:18.192Z,31.75
2019-06-04T14:48:28.889Z,31.11
2019-06-04T14:49:40.811Z,32.07
2019-06-04T14:50:51.892Z,31.73
2019-06-04T14:52:03.472Z,31.44
2019-06-04T14:53:14.959Z,33.72
2019-06-04T14:54:26.087Z,33.23
2019-06-04T14:55:36.769Z,33.7
2019-06-04T14:56:48.662Z,34.63
2019-06-04T14:58:01.331Z,36.28
2019-06-04T14:59:17.643Z,36.9
2019-06-04T15:00:21.956Z,33.16
2019-06-04T15:01:33.947Z,32.07
2019-06-04T15:03:56.452Z,32.84
2019-06-04T15:05:07.310Z,32.31
2019-06-04T15:06:19.578Z,33.07
2019-06-04T15:07:29.882Z,34.37
2019-06-04T15:08:41.572Z,35.52
2019-06-04T15:09:52.375Z,36.55
2019-06-04T15:11:04.143Z,35.82
2019-06-04T15:12:15.295Z,33.86
2019-06-04T15:13:26.714Z,34.77
2019-06-04T15:14:37.500Z,33.93
2019-06-04T15:15:49.378Z,36.09
2019-06-04T15:17:00.016Z,32.34
2019-06-04T15:18:11.966Z,33.68
2019-06-04T15:19:22.653Z,33.39
2019-06-04T15:20:34.463Z,33.73
2019-06-04T15:21:45.174Z,33.88
2019-06-04T15:22:58.716Z,33.49
2019-06-04T15:24:08.623Z,33.21
2019-06-04T15:25:19.372Z,33.38
2019-06-04T15:26:30.026Z,32.41
2019-06-04T15:27:41.850Z,32.93
2019-06-04T15:28:52.633Z,33.56
2019-06-04T15:30:04.396Z,34.5
2019-06-04T15:31:15.671Z,33.89
2019-06-04T15:32:26.789Z,33.78
2019-06-04T15:33:37.558Z,34.09
2019-06-04T15:34:49.259Z,31.99
2019-06-04T15:35:59.946Z,30.98
2019-06-04T15:37:12.229Z,30.7
2019-06-04T15:38:22.786Z,31.18
2019-06-04T15:39:33.870Z,31
2019-06-04T15:40:44.464Z,31.04
2019-06-04T15:41:56.101Z,30.44
2019-06-04T15:43:06.728Z,30.27
2019-06-04T15:44:17.614Z,30.32
2019-06-04T15:45:30.504Z,29.87
2019-06-04T15:46:39.105Z,30.19
2019-06-04T15:47:49.518Z,30.15
2019-06-04T15:49:00.614Z,30.72
2019-06-04T15:50:11.342Z,30.55
2019-06-04T15:51:22.395Z,30.16
2019-06-04T15:52:50.207Z,30.41
2019-06-04T15:53:42.397Z,30.57
2019-06-04T15:54:52.807Z,30.41
2019-06-04T15:56:03.277Z,30.43
2019-06-04T15:57:14.285Z,29.94
2019-06-04T15:58:25.119Z,30.46
2019-06-04T15:59:36.425Z,29.95
2019-06-04T16:00:47.765Z,29.89
2019-06-04T16:01:59.214Z,29.86
2019-06-04T16:03:09.643Z,29.93
2019-06-04T16:04:19.817Z,30.1
2019-06-04T16:05:30.123Z,30.27
2019-06-04T16:06:40.408Z,30
2019-06-04T16:07:50.757Z,29.96
2019-06-04T16:09:00.969Z,30.32
2019-06-04T16:10:11.253Z,30.2
2019-06-04T16:11:23.055Z,30.38
2019-06-04T16:12:31.849Z,30.77
2019-06-04T16:13:42.116Z,30.34
2019-06-04T16:14:52.528Z,29.94
2019-06-04T16:16:06.910Z,29.87
2019-06-04T16:17:14.064Z,30.28
2019-06-04T16:18:26.663Z,29.98
2019-06-04T16:19:35.747Z,29.98
2019-06-04T16:20:46.011Z,29.75
2019-06-04T16:21:56.325Z,29.91
2019-06-04T16:23:06.581Z,29.78
2019-06-04T16:24:17.991Z,29.65
2019-06-04T16:25:28.693Z,29.83
2019-06-04T16:26:37.470Z,29.99
2019-06-04T16:27:47.743Z,30.21
2019-06-04T16:28:58.017Z,30.01
2019-06-04T16:30:09.292Z,29.96
2019-06-04T16:31:21.151Z,29.61
2019-06-04T16:32:30.104Z,29.66
2019-06-04T16:33:40.081Z,29.89
2019-06-04T16:34:50.348Z,30.06
2019-06-04T16:36:00.555Z,30.01
2019-06-04T16:37:10.829Z,30.1
2019-06-04T16:38:25.441Z,30.04
2019-06-04T16:39:31.313Z,30.06
2019-06-04T16:40:41.561Z,29.69
2019-06-04T16:41:51.839Z,29.84
2019-06-04T16:43:03.269Z,29.9
2019-06-04T16:44:13.530Z,30.08
2019-06-04T16:45:25.190Z,29.85
2019-06-04T16:46:35.986Z,29.99
2019-06-04T16:47:46.216Z,30.52
2019-06-04T16:48:59.773Z,30.28
2019-06-04T16:50:06.677Z,30.05
2019-06-04T16:51:16.892Z,30.27
2019-06-04T16:52:27.218Z,30.01
2019-06-04T16:53:37.436Z,30.14
2019-06-04T16:54:47.900Z,30
2019-06-04T16:55:58.009Z,29.87
2019-06-04T16:57:08.195Z,29.78
2019-06-04T16:58:20.260Z,29.72
2019-06-04T16:59:29.653Z,29.8
2019-06-04T17:00:38.826Z,29.86
2019-06-04T17:01:49.059Z,29.82
2019-06-04T17:03:00.445Z,29.71
2019-06-04T17:04:09.548Z,29.76
2019-06-04T17:05:19.981Z,29.95
2019-06-04T17:06:30.837Z,29.99
2019-06-04T17:07:40.244Z,29.77
2019-06-04T17:08:51.626Z,29.96
2019-06-04T17:10:01.856Z,29.84
2019-06-04T17:11:12.196Z,29.76
2019-06-04T17:12:22.352Z,29.78
2019-06-04T17:13:32.517Z,29.82
2019-06-04T17:14:42.805Z,29.75
2019-06-04T17:15:52.971Z,29.61
2019-06-04T17:17:03.225Z,29.63
2019-06-04T17:18:13.528Z,29.67
2019-06-04T17:19:24.797Z,29.73
2019-06-04T17:20:33.875Z,29.78
2019-06-04T17:21:45.255Z,29.69
2019-06-04T17:22:55.469Z,29.71
2019-06-04T17:24:05.701Z,29.72
2019-06-04T17:25:15.911Z,29.65
2019-06-04T17:26:26.130Z,29.61
2019-06-04T17:27:36.482Z,29.72
2019-06-04T17:28:46.638Z,29.61
2019-06-04T17:29:56.798Z,29.63
2019-06-04T17:31:07.013Z,29.62
2019-06-04T17:32:17.265Z,29.64
2019-06-04T17:33:28.415Z,29.7
2019-06-04T17:34:37.691Z,29.6
2019-06-04T17:35:47.955Z,29.59
2019-06-04T17:36:58.239Z,29.6
2019-06-04T17:38:08.363Z,29.6
2019-06-04T17:39:18.553Z,29.62
2019-06-04T17:40:29.391Z,29.47
2019-06-04T17:41:38.983Z,29.46
2019-06-04T17:43:04.520Z,29.43
2019-06-04T17:43:59.393Z,29.45
2019-06-04T17:45:10.775Z,29.45
2019-06-04T17:46:21.025Z,29.46
2019-06-04T17:47:32.307Z,29.49
2019-06-04T17:48:41.370Z,29.54
2019-06-04T17:49:51.712Z,29.5
2019-06-04T17:51:01.844Z,29.53
2019-06-04T17:52:13.006Z,29.57
2019-06-04T17:53:24.135Z,29.58
2019-06-04T17:54:34.454Z,29.47
2019-06-04T17:55:43.633Z,29.42
2019-06-04T17:56:53.854Z,29.4
2019-06-04T17:58:05.168Z,29.41
2019-06-04T17:59:15.381Z,29.4
2019-06-04T18:00:26.588Z,29.37
2019-06-04T18:02:47.161Z,29.4
2019-06-04T18:03:57.218Z,29.43
2019-06-04T18:05:07.527Z,29.36
2019-06-04T18:07:28.665Z,29.35
2019-06-04T18:08:39.883Z,29.31
2019-06-04T18:09:48.263Z,29.24
2019-06-04T18:10:58.448Z,29.27
2019-06-04T18:12:08.642Z,29.24
2019-06-04T18:13:24.399Z,29.18
2019-06-04T18:14:29.056Z,29.26
2019-06-04T18:15:39.695Z,29.27
2019-06-04T18:16:49.431Z,29.23
2019-06-04T18:17:59.661Z,29.2
2019-06-04T18:19:09.841Z,29.18
2019-06-04T18:20:20.106Z,29.13
2019-06-04T18:21:30.235Z,29.15
2019-06-04T18:22:40.427Z,29.12
2019-06-04T18:23:51.610Z,29.12
2019-06-04T18:25:01.870Z,29.07
2019-06-04T18:26:12.053Z,29.04
2019-06-04T18:27:22.248Z,29.06
2019-06-04T18:28:32.686Z,29.04
2019-06-04T18:30:52.774Z,29.02
2019-06-04T18:32:02.959Z,28.99
2019-06-04T18:33:13.226Z,28.96
2019-06-04T18:34:24.510Z,28.95
2019-06-04T18:35:35.076Z,28.95
2019-06-04T18:36:45.934Z,28.94
2019-06-04T18:37:56.111Z,28.9
2019-06-04T18:39:06.386Z,28.91
2019-06-04T18:40:16.494Z,28.88
2019-06-04T18:41:28.085Z,28.85
2019-06-04T18:42:38.731Z,28.86
2019-06-04T18:43:51.916Z,28.8
2019-06-04T18:44:58.406Z,28.76
2019-06-04T18:46:08.394Z,28.75
2019-06-04T18:47:18.619Z,28.66
2019-06-04T18:48:28.791Z,28.71
2019-06-04T18:49:40.014Z,28.68
2019-06-04T18:50:50.118Z,28.63
2019-06-04T18:52:00.373Z,28.6